Woodland, PA (16881)

5:56 AM EST on February 09, 2016 (GMT -0500)
Woodland | | Change Station
CLOSE
Current Station
Personal Weather Station
Location: Woodland, PA
Elevation: 1765 ft
Nearby Weather Stations

Elev 1765 ft 41.01 °N, 78.35 °W | Updated 6 minutes ago

Overcast
Overcast
28.4 °F
Feels Like 28 °F
N
0.0
Wind Variable Wind from SE

Today
High -- | Low -- °F
--% Chance of Precip.
Yesterday
High -- | Low -- °F
Precip. -- in
Pressure 29.54 in
Visibility 4.0 miles
Clouds Mostly Cloudy 4100 ft
Overcast 5500 ft
Windchill 28 °F
Dew Point 26 °F
Humidity 89%
Rainfall 0.00 in
Snow Depth Not available.
7:15 AM 5:39 PM
New Moon, 1% visible
METAR KFIG 091054Z AUTO 00000KT 4SM BR BKN041 OVC055 M01/M02 A2950 RMK AO2 SLP001 T10111022
Pressure 29.54 in
Visibility 4.0 miles
Clouds Mostly Cloudy 4100 ft
Overcast 5500 ft
Windchill 28 °F
Dew Point 26 °F
Humidity 89%
Rainfall 0.00 in
Snow Depth Not available.
7:15 AM 5:39 PM
New Moon, 1% visible
METAR KFIG 091054Z AUTO 00000KT 4SM BR BKN041 OVC055 M01/M02 A2950 RMK AO2 SLP001 T10111022

10-Day Weather Forecast

Almanac

Astronomy

Feb. 09, 2016 Rise Set
Actual Time
Civil Twilight
Nautical Twilight
Astronomical Twilight
Moon
Length of Visible Light
Length of Day
Tomorrow will be .
, % of the Moon is Illuminated

Today's Extremes

State Highs State Lows

Community

WunderPhotos

Upload Photos

1,891,565 photos uploaded!

WunderBlog® & News

Nearby

Air Quality

  Air Quality AQ Index Pollutant
Not available.

Snow Depth

Station Depth Elevation

Earthquake Activity

City Distance Mag. Time & Date
Minimum magnitude displayed is 2.5.

Coastal Water Temperatures

Place Temperature

Stations

Nearby Weather Stations

Station Location Temp. Windchill Dew Point Humidity Wind Precip. Elev Updated Type
                   

Watches & Warnings

There are currently no watches in effect.